Time;durP1;ratioP1;P1;durP2;ratioP2;P2;SDS_P1;SDS_P2;PMS_P1;PMS_P2;Temp;Humidity;BMP_temperature;BMP_pressure;BME280_temperature;BME280_humidity;BME280_pressure;Samples;Min_cycle;Max_cycle;Signal;HPM_P1;HPM_P2
2022/08/23 00:01:50;;;;;;;1.48;0.70;;;;;;;;;;4884675;29;20036;-82
2022/08/23 00:04:17;;;;;;;1.00;0.50;;;;;;;;;;4884686;29;20024;-83
2022/08/23 00:06:44;;;;;;;2.55;0.93;;;;;;;;;;4885100;29;20119;-83
2022/08/23 00:09:11;;;;;;;1.38;0.73;;;;;;;;;;4884692;29;20031;-82
2022/08/23 00:11:40;;;;;;;1.50;0.80;;;;;;;;;;4884892;29;20061;-82
2022/08/23 00:14:09;;;;;;;1.23;0.50;;;;;;;;;;4884637;29;20060;-81
2022/08/23 00:16:35;;;;;;;2.88;0.68;;;;;;;;;;4884666;29;20481;-80
2022/08/23 00:19:02;;;;;;;0.80;0.30;;;;;;;;;;4884740;29;20509;-83
2022/08/23 00:21:28;;;;;;;0.80;0.40;;;;;;;;;;4884315;29;20040;-81
2022/08/23 00:23:54;;;;;;;2.38;0.35;;;;;;;;;;4902450;29;20045;-83
2022/08/23 00:26:20;;;;;;;1.42;0.20;;;;;;;;;;4901816;29;20381;-80
2022/08/23 00:28:48;;;;;;;1.10;0.40;;;;;;;;;;4884433;29;20024;-82
2022/08/23 00:31:14;;;;;;;7.20;0.45;;;;;;;;;;4884700;29;20044;-81
2022/08/23 00:33:40;;;;;;;0.40;0.20;;;;;;;;;;4884127;29;20035;-82
2022/08/23 00:36:06;;;;;;;0.73;0.20;;;;;;;;;;4884276;29;20485;-79
2022/08/23 00:38:32;;;;;;;0.40;0.20;;;;;;;;;;4884111;29;20029;-82
2022/08/23 00:40:59;;;;;;;2.63;0.30;;;;;;;;;;4883992;29;20068;-83
2022/08/23 00:49:25;;;;;;;1.17;0.40;;;;;;;;;;4920070;29;20099;-82
2022/08/23 00:52:07;;;;;;;0.70;0.30;;;;;;;;;;4920474;29;20024;-81
2022/08/23 00:54:34;;;;;;;0.35;0.15;;;;;;;;;;4902889;29;20028;-82
2022/08/23 00:57:02;;;;;;;0.60;0.30;;;;;;;;;;4902800;29;20020;-84
2022/08/23 00:59:28;;;;;;;1.85;0.28;;;;;;;;;;4901968;29;20032;-84
2022/08/23 01:01:55;;;;;;;1.83;0.30;;;;;;;;;;4903711;29;20040;-81
2022/08/23 01:04:21;;;;;;;4.43;0.30;;;;;;;;;;4902691;29;20083;-77
2022/08/23 01:06:50;;;;;;;1.10;0.30;;;;;;;;;;4902573;29;20115;-81
2022/08/23 01:09:17;;;;;;;3.67;0.30;;;;;;;;;;4920027;29;20098;-79
2022/08/23 01:11:59;;;;;;;2.15;0.77;;;;;;;;;;4902736;29;20028;-83
2022/08/23 01:14:26;;;;;;;2.20;0.10;;;;;;;;;;4902422;29;20493;-83
2022/08/23 01:16:55;;;;;;;3.22;0.40;;;;;;;;;;4902881;29;20043;-84
2022/08/23 01:19:42;;;;;;;3.25;0.22;;;;;;;;;;4902787;29;20051;-83
2022/08/23 01:22:11;;;;;;;0.20;0.10;;;;;;;;;;4902223;29;20036;-83
2022/08/23 01:24:38;;;;;;;1.75;0.10;;;;;;;;;;4903144;29;20034;-83
2022/08/23 01:27:04;;;;;;;0.70;0.20;;;;;;;;;;4920224;29;20032;-85
2022/08/23 01:29:30;;;;;;;0.20;0.10;;;;;;;;;;4902747;29;20030;-85
2022/08/23 01:31:57;;;;;;;0.30;0.10;;;;;;;;;;4902549;29;20028;-83
2022/08/23 01:34:27;;;;;;;0.60;0.20;;;;;;;;;;4902300;29;20032;-86
2022/08/23 01:36:53;;;;;;;1.05;0.20;;;;;;;;;;4919070;29;20028;-86
2022/08/23 01:39:20;;;;;;;1.08;0.20;;;;;;;;;;4902331;29;20028;-83
2022/08/23 01:41:46;;;;;;;0.50;0.30;;;;;;;;;;4903497;29;20040;-83
2022/08/23 01:44:12;;;;;;;1.45;0.30;;;;;;;;;;4904292;29;20176;-84
2022/08/23 01:46:39;;;;;;;0.40;0.20;;;;;;;;;;4901893;29;20052;-85
2022/08/23 01:49:05;;;;;;;0.77;0.30;;;;;;;;;;4903155;29;20035;-84
2022/08/23 01:51:32;;;;;;;0.65;0.20;;;;;;;;;;4902587;29;20496;-84
2022/08/23 01:53:58;;;;;;;0.50;0.20;;;;;;;;;;4902256;29;20039;-81
2022/08/23 01:56:24;;;;;;;0.95;0.30;;;;;;;;;;4902808;29;20118;-84
2022/08/23 01:58:50;;;;;;;0.40;0.20;;;;;;;;;;4919168;29;20024;-81
2022/08/23 02:01:17;;;;;;;0.50;0.20;;;;;;;;;;4901676;29;20064;-82
2022/08/23 02:03:44;;;;;;;0.50;0.20;;;;;;;;;;4901951;29;20020;-84
2022/08/23 02:06:11;;;;;;;0.30;0.20;;;;;;;;;;4901682;29;20036;-83
2022/08/23 02:11:23;;;;;;;0.60;0.20;;;;;;;;;;4918356;29;20587;-83
2022/08/23 02:13:50;;;;;;;0.50;0.20;;;;;;;;;;4918524;29;20107;-84
2022/08/23 02:16:23;;;;;;;1.17;0.20;;;;;;;;;;4902260;29;20131;-83
2022/08/23 02:18:50;;;;;;;0.98;0.20;;;;;;;;;;4901359;29;20028;-84
2022/08/23 02:21:16;;;;;;;0.40;0.20;;;;;;;;;;4918704;29;20046;-84
2022/08/23 02:23:43;;;;;;;2.00;0.20;;;;;;;;;;4902171;29;20388;-83
2022/08/23 02:26:09;;;;;;;0.30;0.15;;;;;;;;;;4901126;29;20500;-83
2022/08/23 02:28:36;;;;;;;0.75;0.20;;;;;;;;;;4901934;29;20024;-84
2022/08/23 02:31:02;;;;;;;0.30;0.20;;;;;;;;;;4901843;29;20028;-84
2022/08/23 02:33:28;;;;;;;0.77;0.35;;;;;;;;;;4901655;29;20028;-84
2022/08/23 02:35:54;;;;;;;1.83;0.25;;;;;;;;;;4918095;29;20107;-84
2022/08/23 02:38:20;;;;;;;0.57;0.30;;;;;;;;;;4901066;29;20032;-85
2022/08/23 02:40:47;;;;;;;1.13;0.13;;;;;;;;;;4918398;29;20036;-84
2022/08/23 02:43:13;;;;;;;1.23;0.20;;;;;;;;;;4918075;29;20032;-79
2022/08/23 02:45:40;;;;;;;2.70;0.28;;;;;;;;;;4901031;29;20021;-81
2022/08/23 02:48:07;;;;;;;0.57;0.10;;;;;;;;;;4900770;29;20135;-83
2022/08/23 02:50:34;;;;;;;0.50;0.50;;;;;;;;;;4901491;29;20032;-81
2022/08/23 02:53:00;;;;;;;0.20;0.10;;;;;;;;;;4901243;29;20025;-85
2022/08/23 02:55:26;;;;;;;0.80;0.20;;;;;;;;;;4901280;29;20028;-84
2022/08/23 02:57:52;;;;;;;2.83;0.20;;;;;;;;;;4901847;29;20024;-83
2022/08/23 03:00:19;;;;;;;0.70;0.20;;;;;;;;;;4918561;29;20043;-85
2022/08/23 03:02:46;;;;;;;0.30;0.10;;;;;;;;;;4901271;29;20046;-85
2022/08/23 03:05:12;;;;;;;1.45;0.30;;;;;;;;;;4918942;29;20032;-84
2022/08/23 03:07:39;;;;;;;1.20;0.20;;;;;;;;;;4917858;29;20036;-83
2022/08/23 03:10:06;;;;;;;0.45;0.15;;;;;;;;;;4900942;29;20028;-85
2022/08/23 03:12:32;;;;;;;2.15;0.32;;;;;;;;;;4901342;29;20039;-85
2022/08/23 03:14:59;;;;;;;2.95;0.10;;;;;;;;;;4917785;29;20039;-84
2022/08/23 03:17:25;;;;;;;3.50;0.10;;;;;;;;;;4900931;29;20401;-84
2022/08/23 03:19:51;;;;;;;1.45;0.20;;;;;;;;;;4901428;29;20024;-82
2022/08/23 03:22:17;;;;;;;0.15;0.10;;;;;;;;;;4918251;29;20063;-82
2022/08/23 03:24:44;;;;;;;1.17;0.20;;;;;;;;;;4904781;29;20036;-85
2022/08/23 03:27:10;;;;;;;0.30;0.10;;;;;;;;;;4904669;29;20036;-84
2022/08/23 03:29:37;;;;;;;0.35;0.10;;;;;;;;;;4904437;29;20024;-77
2022/08/23 03:32:05;;;;;;;0.75;0.10;;;;;;;;;;4921442;29;20028;-81
2022/08/23 03:34:31;;;;;;;0.22;0.10;;;;;;;;;;4904563;29;20462;-84
2022/08/23 03:36:57;;;;;;;0.40;0.10;;;;;;;;;;4904307;29;20465;-83
2022/08/23 03:39:24;;;;;;;0.95;0.10;;;;;;;;;;4905112;29;20038;-83
2022/08/23 03:41:50;;;;;;;0.20;0.10;;;;;;;;;;4904540;29;20040;-83
2022/08/23 03:44:16;;;;;;;0.80;0.10;;;;;;;;;;4903915;29;20462;-80
2022/08/23 03:46:42;;;;;;;0.10;0.00;;;;;;;;;;4899123;29;20049;-83
2022/08/23 03:49:08;;;;;;;0.10;0.10;;;;;;;;;;4885627;29;20037;-84
2022/08/23 03:51:34;;;;;;;1.10;0.13;;;;;;;;;;4885368;29;20040;-84
2022/08/23 03:54:01;;;;;;;1.50;0.20;;;;;;;;;;4885534;29;20036;-84
2022/08/23 03:56:30;;;;;;;0.22;0.10;;;;;;;;;;4885477;29;20029;-83
2022/08/23 03:58:57;;;;;;;1.08;0.10;;;;;;;;;;4885063;29;20150;-83
2022/08/23 04:01:23;;;;;;;0.30;0.10;;;;;;;;;;4885804;29;20402;-83
2022/08/23 04:03:49;;;;;;;0.20;0.00;;;;;;;;;;4885437;29;20024;-83
2022/08/23 04:06:15;;;;;;;0.65;0.10;;;;;;;;;;4902834;29;20493;-83
2022/08/23 04:08:42;;;;;;;0.10;0.10;;;;;;;;;;4884912;29;20123;-83
2022/08/23 04:11:08;;;;;;;0.60;0.10;;;;;;;;;;4885140;29;20478;-80
2022/08/23 04:13:35;;;;;;;0.10;0.00;;;;;;;;;;4885203;29;20032;-84
2022/08/23 04:16:02;;;;;;;2.00;0.10;;;;;;;;;;4884623;29;20033;-81
2022/08/23 04:18:30;;;;;;;1.63;0.17;;;;;;;;;;4884743;29;20028;-83
2022/08/23 04:20:57;;;;;;;0.13;0.10;;;;;;;;;;4884665;29;20063;-83
2022/08/23 04:23:24;;;;;;;2.15;0.20;;;;;;;;;;4884627;29;20048;-76
2022/08/23 04:25:50;;;;;;;0.10;0.10;;;;;;;;;;4885136;29;20474;-84
2022/08/23 04:28:17;;;;;;;0.20;0.00;;;;;;;;;;4901236;29;20028;-77
2022/08/23 04:30:44;;;;;;;0.30;0.10;;;;;;;;;;4884917;29;20402;-77
2022/08/23 04:33:10;;;;;;;1.67;0.10;;;;;;;;;;4902832;29;20052;-83
2022/08/23 04:35:36;;;;;;;0.20;0.10;;;;;;;;;;4901604;29;20367;-83
2022/08/23 04:38:02;;;;;;;0.32;0.10;;;;;;;;;;4884682;29;20033;-83
2022/08/23 04:43:13;;;;;;;0.77;0.20;;;;;;;;;;4901025;29;20051;-83
2022/08/23 04:45:40;;;;;;;0.43;0.20;;;;;;;;;;4884383;29;20119;-83
2022/08/23 04:48:07;;;;;;;0.68;0.10;;;;;;;;;;4899726;29;20052;-83
2022/08/23 04:50:33;;;;;;;0.17;0.10;;;;;;;;;;4902819;29;20394;-83
2022/08/23 04:52:59;;;;;;;0.20;0.10;;;;;;;;;;4919749;29;20466;-82
2022/08/23 04:55:25;;;;;;;0.40;0.10;;;;;;;;;;4903083;29;20024;-82
2022/08/23 04:57:52;;;;;;;0.10;0.10;;;;;;;;;;4902680;29;20036;-82
2022/08/23 05:00:18;;;;;;;1.10;0.17;;;;;;;;;;4903198;29;20404;-82
2022/08/23 05:02:45;;;;;;;0.38;0.10;;;;;;;;;;4903719;29;20028;-83
2022/08/23 05:05:11;;;;;;;1.25;0.03;;;;;;;;;;4902702;29;20075;-83
2022/08/23 05:07:38;;;;;;;0.08;0.00;;;;;;;;;;4919999;29;20027;-83
2022/08/23 05:10:06;;;;;;;0.55;0.25;;;;;;;;;;4902410;29;20056;-82
2022/08/23 05:12:32;;;;;;;0.30;0.05;;;;;;;;;;4902298;29;20549;-81
2022/08/23 05:14:58;;;;;;;0.22;0.00;;;;;;;;;;4920527;29;20032;-81
2022/08/23 05:17:24;;;;;;;0.10;0.10;;;;;;;;;;4902314;29;20024;-80
2022/08/23 05:19:50;;;;;;;0.20;0.10;;;;;;;;;;4902670;29;20032;-81
2022/08/23 05:22:16;;;;;;;0.20;0.10;;;;;;;;;;4901798;29;20088;-82
2022/08/23 05:24:42;;;;;;;0.10;0.05;;;;;;;;;;4901818;29;20028;-81
2022/08/23 05:27:08;;;;;;;2.22;0.10;;;;;;;;;;4902000;29;20028;-82
2022/08/23 05:29:35;;;;;;;0.10;0.00;;;;;;;;;;4918855;29;20469;-82
2022/08/23 05:32:01;;;;;;;0.52;0.03;;;;;;;;;;4902144;29;20181;-82
2022/08/23 05:34:27;;;;;;;0.13;0.10;;;;;;;;;;4902724;29;20370;-78
2022/08/23 05:36:54;;;;;;;2.17;0.00;;;;;;;;;;4901566;29;20036;-79
2022/08/23 05:39:21;;;;;;;0.60;0.10;;;;;;;;;;4919565;29;20035;-80
2022/08/23 05:41:50;;;;;;;0.40;0.10;;;;;;;;;;4903916;29;20036;-79
2022/08/23 05:44:16;;;;;;;0.25;0.10;;;;;;;;;;4902340;29;20044;-81
2022/08/23 05:46:42;;;;;;;0.10;0.08;;;;;;;;;;4901592;29;20405;-81
2022/08/23 05:49:08;;;;;;;1.20;0.00;;;;;;;;;;4901405;29;20112;-81
2022/08/23 05:51:34;;;;;;;1.70;0.00;;;;;;;;;;4919192;29;20075;-80
2022/08/23 05:54:06;;;;;;;0.13;0.00;;;;;;;;;;4902073;29;20047;-80
2022/08/23 05:56:33;;;;;;;0.17;0.00;;;;;;;;;;4907756;29;20024;-80
2022/08/23 05:59:02;;;;;;;0.10;0.00;;;;;;;;;;4896399;29;20024;-79
2022/08/23 06:01:29;;;;;;;0.03;0.00;;;;;;;;;;4896408;29;20401;-79
2022/08/23 06:03:56;;;;;;;0.05;0.00;;;;;;;;;;4901395;29;20192;-79
2022/08/23 06:06:22;;;;;;;0.10;0.00;;;;;;;;;;4898934;29;20371;-78
2022/08/23 06:08:48;;;;;;;0.00;0.00;;;;;;;;;;4899232;29;20029;-77
2022/08/23 06:11:16;;;;;;;0.20;0.00;;;;;;;;;;4898330;29;20085;-77
2022/08/23 06:13:48;;;;;;;0.70;0.10;;;;;;;;;;4882094;29;20390;-78
2022/08/23 06:16:14;;;;;;;0.17;0.03;;;;;;;;;;4894857;29;20028;-77
2022/08/23 06:18:41;;;;;;;0.32;0.10;;;;;;;;;;4900949;29;20024;-77
2022/08/23 06:21:08;;;;;;;0.22;0.05;;;;;;;;;;4917670;29;20036;-78
2022/08/23 06:23:35;;;;;;;0.20;0.08;;;;;;;;;;4900509;29;20395;-76
2022/08/23 06:26:01;;;;;;;0.00;0.00;;;;;;;;;;4917694;29;20032;-77
2022/08/23 06:28:30;;;;;;;0.70;0.10;;;;;;;;;;4901307;29;20512;-76
2022/08/23 06:30:57;;;;;;;0.30;0.10;;;;;;;;;;4900754;29;20028;-76
2022/08/23 06:33:25;;;;;;;0.00;0.00;;;;;;;;;;4888464;29;20119;-77
2022/08/23 06:36:00;;;;;;;0.10;0.00;;;;;;;;;;4881919;29;20088;-78
2022/08/23 06:38:26;;;;;;;0.52;0.10;;;;;;;;;;4881674;29;20025;-77
2022/08/23 06:40:52;;;;;;;0.60;0.10;;;;;;;;;;4898489;29;20033;-77
2022/08/23 06:43:19;;;;;;;0.43;0.10;;;;;;;;;;4898569;29;20482;-80
2022/08/23 06:45:46;;;;;;;0.30;0.10;;;;;;;;;;4898651;29;20035;-77
2022/08/23 06:48:12;;;;;;;2.17;0.10;;;;;;;;;;4881613;29;20045;-78
2022/08/23 06:50:40;;;;;;;0.22;0.08;;;;;;;;;;4905048;29;20040;-77
2022/08/23 06:53:06;;;;;;;0.40;0.10;;;;;;;;;;4880870;29;20032;-79
2022/08/23 06:55:32;;;;;;;1.45;0.10;;;;;;;;;;4897607;29;20033;-78
2022/08/23 06:57:58;;;;;;;0.50;0.20;;;;;;;;;;4880379;29;20120;-76
2022/08/23 07:00:24;;;;;;;0.20;0.10;;;;;;;;;;4898245;29;20503;-75
2022/08/23 07:02:50;;;;;;;0.30;0.10;;;;;;;;;;4898957;29;20039;-75
2022/08/23 07:05:17;;;;;;;0.30;0.10;;;;;;;;;;4916891;29;20104;-80
2022/08/23 07:07:43;;;;;;;0.75;0.20;;;;;;;;;;4911379;29;20373;-82
2022/08/23 07:10:09;;;;;;;0.13;0.08;;;;;;;;;;4900039;29;20051;-82
2022/08/23 07:12:39;;;;;;;0.65;0.20;;;;;;;;;;4900488;29;20036;-85
2022/08/23 07:15:05;;;;;;;3.65;0.30;;;;;;;;;;4917441;29;20082;-84
2022/08/23 07:17:31;;;;;;;1.02;0.30;;;;;;;;;;4917944;29;20040;-85
2022/08/23 07:19:57;;;;;;;9.27;0.30;;;;;;;;;;4905659;29;20405;-83
2022/08/23 07:22:24;;;;;;;0.40;0.10;;;;;;;;;;4902882;29;20092;-84
2022/08/23 07:24:50;;;;;;;0.60;0.20;;;;;;;;;;4905038;29;20099;-85
2022/08/23 07:27:16;;;;;;;0.38;0.10;;;;;;;;;;4914977;29;20041;-87
2022/08/23 07:29:42;;;;;;;0.73;0.20;;;;;;;;;;4895476;29;20068;-87
2022/08/23 07:32:09;;;;;;;0.43;0.10;;;;;;;;;;4882534;29;20029;-83
2022/08/23 07:34:35;;;;;;;0.63;0.20;;;;;;;;;;4902339;29;20358;-84
2022/08/23 07:37:02;;;;;;;0.32;0.10;;;;;;;;;;4904636;29;20028;-85
2022/08/23 07:39:31;;;;;;;3.30;0.20;;;;;;;;;;4908799;29;20036;-86
2022/08/23 07:42:02;;;;;;;0.45;0.15;;;;;;;;;;4899333;29;20043;-85
2022/08/23 07:44:28;;;;;;;2.33;0.20;;;;;;;;;;4887514;29;20029;-85
2022/08/23 07:46:58;;;;;;;0.28;0.10;;;;;;;;;;4881788;29;20061;-88
2022/08/23 07:49:24;;;;;;;0.47;0.20;;;;;;;;;;4889088;29;20450;-92
2022/08/23 07:51:51;;;;;;;3.05;0.30;;;;;;;;;;4895279;29;20370;-91
2022/08/23 07:54:21;;;;;;;0.52;0.20;;;;;;;;;;4902433;29;20028;-92
2022/08/23 07:56:47;;;;;;;0.77;0.30;;;;;;;;;;4901684;29;20043;-90
2022/08/23 07:59:14;;;;;;;0.80;0.20;;;;;;;;;;4893106;29;20441;-89
2022/08/23 08:01:42;;;;;;;0.32;0.10;;;;;;;;;;4918310;29;20092;-86
2022/08/23 08:04:08;;;;;;;0.70;0.28;;;;;;;;;;4885417;29;20035;-86
2022/08/23 08:06:37;;;;;;;1.05;0.30;;;;;;;;;;4883094;29;20036;-86
2022/08/23 08:09:04;;;;;;;0.65;0.20;;;;;;;;;;4890191;29;20020;-83
2022/08/23 08:11:32;;;;;;;0.70;0.30;;;;;;;;;;4918943;29;20036;-86
2022/08/23 08:13:58;;;;;;;0.57;0.30;;;;;;;;;;4888813;29;20152;-86
2022/08/23 08:16:26;;;;;;;0.70;0.30;;;;;;;;;;4898262;29;20056;-87
2022/08/23 08:18:54;;;;;;;0.98;0.38;;;;;;;;;;4886019;29;20155;-85
2022/08/23 08:21:20;;;;;;;0.47;0.20;;;;;;;;;;4885794;29;20163;-87
2022/08/23 08:23:46;;;;;;;0.80;0.30;;;;;;;;;;4898119;29;20036;-86
2022/08/23 08:26:13;;;;;;;0.50;0.20;;;;;;;;;;4923886;29;20047;-87
2022/08/23 08:28:39;;;;;;;0.90;0.40;;;;;;;;;;4904426;29;20043;-85
2022/08/23 08:31:06;;;;;;;0.43;0.20;;;;;;;;;;4904765;29;20024;-87
2022/08/23 08:33:32;;;;;;;1.10;0.30;;;;;;;;;;4906638;29;20037;-85
2022/08/23 08:35:58;;;;;;;0.47;0.20;;;;;;;;;;4903860;29;20032;-87
2022/08/23 08:38:33;;;;;;;0.65;0.20;;;;;;;;;;4913582;29;20122;-88
2022/08/23 08:41:06;;;;;;;0.90;0.40;;;;;;;;;;4925789;29;20032;-88
2022/08/23 08:43:41;;;;;;;0.93;0.22;;;;;;;;;;4909442;29;20032;-87
2022/08/23 08:46:25;;;;;;;0.90;0.25;;;;;;;;;;4909623;29;20023;-88
2022/08/23 08:48:54;;;;;;;0.70;0.20;;;;;;;;;;4899277;29;20047;-83
2022/08/23 08:51:26;;;;;;;0.80;0.20;;;;;;;;;;4893218;29;20033;-81
2022/08/23 08:53:52;;;;;;;2.28;0.40;;;;;;;;;;4881906;29;20394;-82
2022/08/23 08:56:23;;;;;;;0.90;0.45;;;;;;;;;;4889799;29;20040;-90
2022/08/23 08:58:52;;;;;;;1.20;0.30;;;;;;;;;;4885563;29;20033;-88
2022/08/23 09:01:22;;;;;;;;;;;;;;;;;;4903017;29;20035;-89
2022/08/23 09:03:48;;;;;;;1.15;0.35;;;;;;;;;;4886026;29;19907;-88
2022/08/23 09:06:15;;;;;;;4.22;0.47;;;;;;;;;;4886205;29;20378;-88
2022/08/23 09:08:50;;;;;;;0.75;0.25;;;;;;;;;;4902815;29;20024;-89
2022/08/23 09:11:21;;;;;;;1.40;0.20;;;;;;;;;;4891123;29;20021;-89
2022/08/23 09:13:54;;;;;;;0.65;0.35;;;;;;;;;;4891481;29;20120;-92
2022/08/23 09:16:31;;;;;;;3.13;0.40;;;;;;;;;;4886787;29;20028;-91
2022/08/23 09:18:59;;;;;;;6.28;0.40;;;;;;;;;;4886013;29;20055;-91
2022/08/23 09:21:25;;;;;;;0.60;0.30;;;;;;;;;;4900584;29;20052;-87
2022/08/23 09:23:51;;;;;;;3.42;0.40;;;;;;;;;;4885807;29;20029;-91
2022/08/23 09:26:23;;;;;;;0.57;0.20;;;;;;;;;;4885336;29;20024;-85
2022/08/23 09:28:53;;;;;;;1.63;0.40;;;;;;;;;;4884137;29;20064;-90
2022/08/23 09:31:57;;;;;;;1.17;0.30;;;;;;;;;;4886852;29;20500;-86
2022/08/23 09:34:35;;;;;;;0.82;0.40;;;;;;;;;;4830506;29;20226;-88
2022/08/23 09:37:13;;;;;;;0.68;0.30;;;;;;;;;;4878453;29;20108;-88
2022/08/23 09:39:41;;;;;;;0.70;0.25;;;;;;;;;;4884558;29;20028;-87
2022/08/23 09:42:28;;;;;;;1.35;0.40;;;;;;;;;;4900962;29;20036;-87
2022/08/23 09:44:55;;;;;;;1.27;0.32;;;;;;;;;;4885019;29;20025;-88
2022/08/23 09:47:30;;;;;;;0.88;0.40;;;;;;;;;;4912593;29;20060;-91
2022/08/23 09:50:06;;;;;;;0.85;0.30;;;;;;;;;;4921713;29;20032;-86
2022/08/23 09:52:34;;;;;;;0.93;0.32;;;;;;;;;;4905070;29;20044;-85
2022/08/23 09:55:06;;;;;;;1.02;0.50;;;;;;;;;;4883549;29;20393;-85
2022/08/23 09:57:33;;;;;;;1.15;0.60;;;;;;;;;;4883441;29;20036;-86
2022/08/23 10:00:02;;;;;;;3.67;0.68;;;;;;;;;;4883332;29;20035;-86
2022/08/23 10:02:31;;;;;;;1.33;0.60;;;;;;;;;;4883570;29;20041;-86
2022/08/23 10:05:00;;;;;;;1.98;0.75;;;;;;;;;;4883355;29;20024;-88
2022/08/23 10:07:29;;;;;;;1.20;0.50;;;;;;;;;;4884718;29;20029;-86
2022/08/23 10:10:12;;;;;;;1.88;0.90;;;;;;;;;;4885170;29;20506;-86
2022/08/23 10:12:38;;;;;;;1.85;0.85;;;;;;;;;;4883104;29;20047;-86
2022/08/23 10:15:05;;;;;;;2.00;0.68;;;;;;;;;;4899673;29;20029;-86
2022/08/23 10:17:44;;;;;;;1.83;0.80;;;;;;;;;;4883153;29;20032;-86
2022/08/23 10:20:10;;;;;;;3.83;0.98;;;;;;;;;;4882897;29;20037;-86
2022/08/23 10:22:43;;;;;;;1.90;0.80;;;;;;;;;;4882546;29;20041;-86
2022/08/23 10:25:11;;;;;;;;;;;;;;;;;;4883202;29;20024;-86
2022/08/23 10:30:40;;;;;;;2.88;0.77;;;;;;;;;;4900011;29;20526;-85
2022/08/23 10:33:13;;;;;;;2.25;0.95;;;;;;;;;;4883043;29;20557;-86
2022/08/23 10:35:56;;;;;;;1.75;0.80;;;;;;;;;;4883183;29;20028;-86
2022/08/23 10:38:28;;;;;;;1.95;0.88;;;;;;;;;;4884185;29;20037;-86
2022/08/23 10:41:00;;;;;;;0.90;0.40;;;;;;;;;;4900034;29;20381;-87
2022/08/23 10:43:43;;;;;;;3.92;0.50;;;;;;;;;;4883536;29;20061;-87
2022/08/23 10:46:09;;;;;;;1.00;0.50;;;;;;;;;;4880483;29;20486;-84
2022/08/23 10:48:37;;;;;;;0.93;0.30;;;;;;;;;;4865046;29;20052;-84
2022/08/23 10:51:07;;;;;;;1.23;0.35;;;;;;;;;;4863226;29;20021;-83
2022/08/23 10:53:33;;;;;;;1.50;0.52;;;;;;;;;;4863179;29;20067;-84
2022/08/23 10:56:03;;;;;;;0.88;0.43;;;;;;;;;;4864289;29;20025;-85
2022/08/23 10:58:50;;;;;;;3.15;0.50;;;;;;;;;;4863861;29;20387;-85
2022/08/23 11:01:19;;;;;;;2.08;0.65;;;;;;;;;;4864113;29;20040;-86
2022/08/23 11:04:08;;;;;;;1.67;0.77;;;;;;;;;;4864012;29;20025;-85
2022/08/23 11:06:34;;;;;;;1.10;0.50;;;;;;;;;;4859015;29;20059;-85
2022/08/23 11:09:03;;;;;;;2.80;0.60;;;;;;;;;;4864091;29;20056;-86
2022/08/23 11:11:42;;;;;;;1.67;0.40;;;;;;;;;;4864060;29;20029;-86
2022/08/23 11:14:10;;;;;;;2.17;0.60;;;;;;;;;;4869059;29;20036;-84
2022/08/23 11:16:40;;;;;;;1.33;0.73;;;;;;;;;;4878848;29;20040;-82
2022/08/23 11:19:10;;;;;;;0.95;0.57;;;;;;;;;;4892299;29;20035;-83
2022/08/23 11:21:38;;;;;;;1.90;0.77;;;;;;;;;;4864972;29;20047;-83
2022/08/23 11:24:04;;;;;;;3.55;0.80;;;;;;;;;;4882367;29;20032;-84
2022/08/23 11:26:38;;;;;;;1.27;0.40;;;;;;;;;;4870561;29;20032;-83
2022/08/23 11:29:11;;;;;;;1.90;0.73;;;;;;;;;;4881794;29;20064;-84
2022/08/23 11:31:39;;;;;;;1.67;0.80;;;;;;;;;;4882258;29;20120;-83
2022/08/23 11:34:39;;;;;;;1.00;0.50;;;;;;;;;;4871420;29;20482;-85
2022/08/23 11:37:19;;;;;;;1.85;0.75;;;;;;;;;;4877115;29;20032;-84
2022/08/23 11:39:57;;;;;;;4.40;0.88;;;;;;;;;;4885129;29;20059;-83
2022/08/23 11:42:46;;;;;;;2.20;0.90;;;;;;;;;;4878677;29;20044;-84
2022/08/23 11:45:22;;;;;;;2.10;0.77;;;;;;;;;;4878997;29;20097;-83
2022/08/23 11:47:52;;;;;;;1.58;0.65;;;;;;;;;;4903061;29;20061;-83
2022/08/23 11:50:18;;;;;;;1.67;0.70;;;;;;;;;;4880803;29;20124;-84
2022/08/23 11:53:01;;;;;;;1.08;0.50;;;;;;;;;;4873869;29;20474;-83
2022/08/23 11:55:35;;;;;;;2.38;1.25;;;;;;;;;;4899190;29;20128;-83
2022/08/23 11:58:01;;;;;;;1.98;0.80;;;;;;;;;;4889349;29;20033;-84
2022/08/23 12:00:27;;;;;;;1.90;0.95;;;;;;;;;;4872545;29;20029;-82
2022/08/23 12:03:00;;;;;;;1.67;0.63;;;;;;;;;;4885009;29;20031;-83
2022/08/23 12:05:41;;;;;;;2.33;0.90;;;;;;;;;;4885450;29;20513;-83
2022/08/23 12:08:10;;;;;;;1.70;0.80;;;;;;;;;;4901634;29;20032;-83
2022/08/23 12:10:42;;;;;;;1.50;0.80;;;;;;;;;;4885258;29;20060;-85
2022/08/23 12:13:18;;;;;;;1.58;0.90;;;;;;;;;;4903889;29;20419;-85
2022/08/23 12:16:03;;;;;;;1.83;0.70;;;;;;;;;;4888582;29;20052;-83
2022/08/23 12:18:29;;;;;;;2.85;0.70;;;;;;;;;;4884777;29;20036;-84
2022/08/23 12:21:00;;;;;;;1.95;0.60;;;;;;;;;;4884595;29;20040;-84
2022/08/23 12:23:26;;;;;;;9.18;1.17;;;;;;;;;;4885094;29;20044;-85
2022/08/23 12:26:18;;;;;;;3.97;0.65;;;;;;;;;;4901666;29;20033;-85
2022/08/23 12:28:51;;;;;;;6.15;1.40;;;;;;;;;;4857858;29;20036;-85
2022/08/23 12:31:40;;;;;;;4.45;1.40;;;;;;;;;;4885020;29;20039;-87
2022/08/23 12:34:11;;;;;;;12.10;3.33;;;;;;;;;;4874788;29;20029;-86
2022/08/23 12:36:56;;;;;;;2.17;0.40;;;;;;;;;;4885673;29;20029;-85
2022/08/23 12:39:33;;;;;;;1.20;0.35;;;;;;;;;;4885030;29;20363;-85
2022/08/23 12:42:09;;;;;;;0.93;0.28;;;;;;;;;;4902193;29;20092;-86
2022/08/23 12:44:35;;;;;;;1.42;0.35;;;;;;;;;;4884848;29;20036;-87
2022/08/23 12:47:28;;;;;;;0.88;0.40;;;;;;;;;;4906780;29;20044;-87
2022/08/23 12:50:00;;;;;;;0.70;0.30;;;;;;;;;;4901340;29;20089;-87
2022/08/23 12:52:28;;;;;;;0.70;0.30;;;;;;;;;;4921145;29;20096;-86
2022/08/23 12:54:56;;;;;;;1.35;0.50;;;;;;;;;;4904169;29;20071;-90
2022/08/23 12:57:33;;;;;;;0.82;0.43;;;;;;;;;;4903589;29;20032;-90
2022/08/23 12:59:59;;;;;;;2.53;0.32;;;;;;;;;;4903550;29;20389;-88
2022/08/23 13:02:27;;;;;;;1.27;0.47;;;;;;;;;;4905346;29;20051;-84
2022/08/23 13:04:56;;;;;;;1.35;0.65;;;;;;;;;;4904775;29;20082;-88
2022/08/23 13:07:25;;;;;;;1.73;0.80;;;;;;;;;;4920751;29;20048;-85
2022/08/23 13:09:51;;;;;;;1.65;0.80;;;;;;;;;;4902878;29;20032;-88
2022/08/23 13:12:19;;;;;;;4.63;0.90;;;;;;;;;;4904144;29;20028;-89
2022/08/23 13:14:50;;;;;;;3.22;1.10;;;;;;;;;;4906643;29;20029;-90
2022/08/23 13:17:37;;;;;;;2.15;1.08;;;;;;;;;;4904265;29;20489;-88
2022/08/23 13:20:06;;;;;;;1.70;1.08;;;;;;;;;;4904536;29;20025;-92
2022/08/23 13:22:33;;;;;;;3.40;1.20;;;;;;;;;;4904821;29;20058;-91
2022/08/23 13:25:24;;;;;;;2.53;1.42;;;;;;;;;;4921443;29;20024;-91
2022/08/23 13:27:55;;;;;;;5.32;1.50;;;;;;;;;;4904614;29;20470;-91
2022/08/23 13:30:23;;;;;;;4.97;1.75;;;;;;;;;;4904191;29;20084;-92
2022/08/23 13:32:51;;;;;;;2.85;1.48;;;;;;;;;;4904530;29;20113;-91
2022/08/23 13:35:26;;;;;;;3.17;1.10;;;;;;;;;;4904291;29;20035;-90
2022/08/23 13:37:55;;;;;;;1.90;1.00;;;;;;;;;;4904018;29;20037;-93
2022/08/23 13:40:30;;;;;;;2.15;1.00;;;;;;;;;;4904040;29;20474;-93
2022/08/23 13:43:01;;;;;;;6.68;1.08;;;;;;;;;;4904104;29;20036;-93
2022/08/23 13:45:32;;;;;;;2.33;1.20;;;;;;;;;;4904658;29;20036;-89
2022/08/23 13:48:01;;;;;;;1.92;0.95;;;;;;;;;;4905121;29;20127;-93
2022/08/23 13:50:31;;;;;;;4.40;1.10;;;;;;;;;;4904656;29;20409;-88
2022/08/23 13:52:57;;;;;;;3.08;0.95;;;;;;;;;;4903717;29;20128;-90
2022/08/23 13:55:25;;;;;;;1.52;0.80;;;;;;;;;;4905425;29;20043;-88
2022/08/23 13:57:51;;;;;;;1.25;0.60;;;;;;;;;;4906029;29;20469;-89
2022/08/23 14:00:18;;;;;;;4.65;0.80;;;;;;;;;;4907513;29;20028;-86
2022/08/23 14:02:47;;;;;;;1.65;0.90;;;;;;;;;;4935257;23;20513;-84
2022/08/23 14:05:14;;;;;;;1.52;0.80;;;;;;;;;;4921007;29;20130;-87
2022/08/23 14:07:40;;;;;;;1.42;0.50;;;;;;;;;;4920577;29;20031;-86
2022/08/23 14:10:07;;;;;;;0.93;0.50;;;;;;;;;;4921317;29;20027;-87
2022/08/23 14:12:33;;;;;;;1.70;0.70;;;;;;;;;;4921715;29;20481;-84
2022/08/23 14:15:01;;;;;;;4.25;0.70;;;;;;;;;;4920930;29;20024;-87
2022/08/23 14:17:27;;;;;;;3.95;1.00;;;;;;;;;;4921446;29;20039;-84
2022/08/23 14:19:53;;;;;;;1.98;1.08;;;;;;;;;;4921034;29;20028;-87
2022/08/23 14:22:19;;;;;;;2.28;1.02;;;;;;;;;;4921036;29;20063;-87
2022/08/23 14:24:45;;;;;;;2.17;1.08;;;;;;;;;;4920781;29;20541;-85
2022/08/23 14:27:11;;;;;;;2.20;1.00;;;;;;;;;;4921412;29;20028;-84
2022/08/23 14:29:38;;;;;;;3.28;1.50;;;;;;;;;;4920569;29;20481;-84
2022/08/23 14:32:04;;;;;;;3.10;1.25;;;;;;;;;;4920627;29;20495;-84
2022/08/23 14:34:30;;;;;;;1.67;1.10;;;;;;;;;;4938875;29;20094;-84
2022/08/23 14:36:57;;;;;;;2.42;1.30;;;;;;;;;;4921122;29;20028;-84
2022/08/23 14:39:23;;;;;;;2.10;1.27;;;;;;;;;;4919925;29;20492;-84
2022/08/23 14:41:50;;;;;;;2.28;1.48;;;;;;;;;;4936797;29;20031;-92
2022/08/23 14:44:16;;;;;;;4.60;1.85;;;;;;;;;;4920854;29;20548;-84
2022/08/23 14:46:43;;;;;;;2.65;1.52;;;;;;;;;;4920145;29;20051;-85
2022/08/23 14:49:09;;;;;;;3.20;1.65;;;;;;;;;;4919784;29;20059;-82
2022/08/23 14:51:38;;;;;;;3.28;1.60;;;;;;;;;;4937555;29;20032;-81
2022/08/23 14:54:06;;;;;;;5.28;1.90;;;;;;;;;;4921094;29;20019;-86
2022/08/23 14:56:33;;;;;;;3.78;1.75;;;;;;;;;;4920006;29;20397;-85
2022/08/23 14:58:59;;;;;;;3.90;2.20;;;;;;;;;;4920573;29;20079;-84
2022/08/23 15:01:26;;;;;;;2.75;1.77;;;;;;;;;;4919807;29;20046;-86
2022/08/23 15:03:52;;;;;;;3.75;1.80;;;;;;;;;;4919848;29;20048;-86
2022/08/23 15:06:20;;;;;;;3.53;1.83;;;;;;;;;;4919728;29;20131;-82
2022/08/23 15:08:47;;;;;;;6.25;2.10;;;;;;;;;;4936697;29;20402;-84